ROMMA est une association bénévole à but non lucratif. Votre soutien est indispensable : ADHERER à ROMMA ou FAIRE un DON

Pinsot - (38, Isère)

Vallée du Haut Bréda (750 m)   Longitude: 06° 06' E   Latitude: 45° 21' N Station partenaire n°101
 

Détail journalier du     <<     >>

Température Precipitation Humidité Pression Vent Dir Rafale Dir. rafale Ensol.
Heure (°C) (mm) (%) (hPa) (km/h) (km/h) (min)
01:00 4.208910183SSO10SSO0
02:00 4.508910183SSO11SSO0
03:00 4.209010183SSO11SSO0
04:00 4.208910174SSO13S0
05:00 3.808910175SSO15SSO0
06:00 3.808810165SSO13S0
07:00 3.908810164SSO11SSO0
08:00 3.309110152SSO13SSO0
09:00 3.808910153SSO13SSO0
10:00 4.608610155SSO11SSO0
11:00 5.208610152SSO10SSO0
12:00 9.906910141SSO10NE15
13:00 11.606310123NE16E60
14:00 12.805710113NNE16NNE60
15:00 11.006410113ENE16NNE20
16:00 10.707310121E10ESE32
17:00 9.4077101203SE0
18:00 8.208010121SSO6SSO0
19:00 7.308010103SSO18SSE0
20:00 6.108410092SSO11SSO0
21:00 6.308410082SSO15ENE0
22:00 6.108410093SSO13SSO0
23:00 5.808410083SSO13S0
minuit 5.208510063SSO11SSO0

Graphique du 19-12-2019

 

Serveur OMMA